createdAt,value
2023-04-22T00:03:58.185Z,5.2
2023-04-22T00:09:50.928Z,5.1
2023-04-22T00:15:42.403Z,5.1
2023-04-22T00:21:35.117Z,4.9
2023-04-22T00:27:26.949Z,4.8
2023-04-22T00:33:19.217Z,4.7
2023-04-22T00:39:11.250Z,4.6
2023-04-22T00:44:47.317Z,4.4
2023-04-22T00:50:39.524Z,4.3
2023-04-22T00:56:31.400Z,4.2
2023-04-22T01:02:07.752Z,4.1
2023-04-22T01:07:45.217Z,3.9
2023-04-22T01:13:22.717Z,3.8
2023-04-22T01:19:17.750Z,3.7
2023-04-22T01:25:08.932Z,3.6
2023-04-22T01:31:00.537Z,3.6
2023-04-22T01:36:53.041Z,3.5
2023-04-22T01:42:44.470Z,3.4
2023-04-22T01:48:36.420Z,3.4
2023-04-22T01:54:12.883Z,3.4
2023-04-22T01:59:48.869Z,3.3
2023-04-22T02:05:41.886Z,3.3
2023-04-22T02:11:34.734Z,3.3
2023-04-22T02:17:25.633Z,3.3
2023-04-22T02:23:18.090Z,3.3
2023-04-22T02:29:08.979Z,3.3
2023-04-22T02:35:00.917Z,3.2
2023-04-22T02:40:52.719Z,3.1
2023-04-22T02:46:43.690Z,3.1
2023-04-22T02:52:19.666Z,3.1
2023-04-22T02:58:11.811Z,3
2023-04-22T03:04:08.564Z,2.9
2023-04-22T03:09:59.885Z,2.9
2023-04-22T03:15:52.211Z,2.9
2023-04-22T03:21:44.573Z,2.8
2023-04-22T03:27:35.700Z,2.8
2023-04-22T03:33:28.178Z,2.8
2023-04-22T03:39:21.901Z,2.8
2023-04-22T03:45:15.314Z,2.7
2023-04-22T03:51:09.690Z,2.7
2023-04-22T03:57:01.473Z,2.6
2023-04-22T04:02:37.872Z,2.6
2023-04-22T04:08:35.177Z,2.6
2023-04-22T04:14:26.917Z,2.7
2023-04-22T04:20:19.842Z,2.7
2023-04-22T04:26:13.478Z,2.8
2023-04-22T04:31:49.643Z,2.9
2023-04-22T04:37:41.838Z,3.1
2023-04-22T04:43:18.742Z,3.3
2023-04-22T04:49:11.768Z,3.6
2023-04-22T04:55:03.132Z,4.1
2023-04-22T05:00:54.762Z,4.6
2023-04-22T05:06:48.618Z,5.2
2023-04-22T05:12:39.956Z,5.8
2023-04-22T05:18:32.170Z,6.6
2023-04-22T05:24:23.180Z,7.6
2023-04-22T05:29:59.348Z,9
2023-04-22T05:35:51.953Z,10.7
2023-04-22T05:41:46.240Z,12.6
2023-04-22T05:47:37.556Z,14.7
2023-04-22T05:53:29.848Z,16.9
2023-04-22T05:59:21.730Z,19.4
2023-04-22T06:05:16.825Z,22.1
2023-04-22T06:10:59.304Z,25
2023-04-22T06:16:50.810Z,27.9
2023-04-22T06:22:44.847Z,47.7
2023-04-22T06:28:21.525Z,42.7
2023-04-22T06:34:13.257Z,41.4
2023-04-22T06:40:04.556Z,40.8
2023-04-22T06:45:56.205Z,58.1
2023-04-22T06:51:48.008Z,58.1
2023-04-22T06:57:42.397Z,58.7
2023-04-22T07:03:19.853Z,59.3
2023-04-22T07:09:12.520Z,59.9
2023-04-22T07:14:48.499Z,60.5
2023-04-22T07:20:40.906Z,61.1
2023-04-22T07:26:32.668Z,61.6
2023-04-22T07:32:24.202Z,62.1
2023-04-22T07:38:00.538Z,62.6
2023-04-22T07:43:52.250Z,62.9
2023-04-22T07:49:44.292Z,63.4
2023-04-22T07:55:38.955Z,63.9
2023-04-22T08:01:15.653Z,62.4
2023-04-22T08:07:26.780Z,45.9
2023-04-22T08:13:19.028Z,47
2023-04-22T08:19:11.126Z,49
2023-04-22T08:25:02.035Z,51.4
2023-04-22T08:30:54.471Z,53.7
2023-04-22T08:36:35.292Z,55.7
2023-04-22T08:42:34.195Z,57.6
2023-04-22T08:48:28.769Z,59.3
2023-04-22T08:54:20.429Z,60.9
2023-04-22T08:59:57.017Z,62.3
2023-04-22T09:05:49.949Z,63.4
2023-04-22T09:11:28.262Z,64.4
2023-04-22T09:17:19.722Z,64.5
2023-04-22T09:23:11.677Z,65.7
2023-04-22T09:29:03.017Z,66.5
2023-04-22T09:34:55.376Z,67.2
2023-04-22T09:40:55.882Z,68
2023-04-22T09:46:48.260Z,67.1
2023-04-22T09:52:39.757Z,66
2023-04-22T09:58:30.850Z,64.9
2023-04-22T10:04:22.590Z,64.2
2023-04-22T10:10:13.749Z,66.7
2023-04-22T10:16:14.906Z,67.9
2023-04-22T10:21:51.102Z,68.5
2023-04-22T10:27:41.852Z,69.1
2023-04-22T10:33:21.544Z,69.6
2023-04-22T10:39:15.644Z,70.3
2023-04-22T10:45:07.929Z,70.8
2023-04-22T10:50:44.682Z,71.3
2023-04-22T10:56:37.476Z,71.8
2023-04-22T11:02:47.440Z,72.1
2023-04-22T11:08:08.486Z,72.4
2023-04-22T11:14:00.043Z,72.8
2023-04-22T11:19:52.453Z,72.8
2023-04-22T11:25:46.904Z,72.3
2023-04-22T11:31:39.315Z,72.1
2023-04-22T11:37:16.157Z,71.9
2023-04-22T11:43:37.320Z,71.4
2023-04-22T11:49:29.433Z,71
2023-04-22T11:55:20.872Z,70.8
2023-04-22T12:00:57.297Z,70.6
2023-04-22T12:06:51.804Z,70.3
2023-04-22T12:12:43.305Z,70.1
2023-04-22T12:18:37.641Z,69.6
2023-04-22T12:24:29.240Z,69.3
2023-04-22T12:30:22.482Z,68.9
2023-04-22T12:36:14.487Z,68.5
2023-04-22T12:42:06.535Z,68.1
2023-04-22T12:47:59.206Z,67.8
2023-04-22T12:53:51.441Z,67.3
2023-04-22T12:59:43.033Z,66.8
2023-04-22T13:05:36.863Z,66.3
2023-04-22T13:11:40.112Z,65.8
2023-04-22T13:17:46.902Z,65.3
2023-04-22T13:23:39.599Z,64.8
2023-04-22T13:29:18.908Z,64.4
2023-04-22T13:35:11.505Z,63.9
2023-04-22T13:41:03.616Z,63.3
2023-04-22T13:46:55.935Z,62.7
2023-04-22T13:52:48.536Z,61.9
2023-04-22T13:58:40.353Z,60.8
2023-04-22T14:04:18.204Z,60.3
2023-04-22T14:09:55.642Z,59.1
2023-04-22T14:15:31.825Z,58.4
2023-04-22T14:21:10.355Z,57.8
2023-04-22T14:27:03.355Z,57.3
2023-04-22T14:32:56.692Z,56.4
2023-04-22T14:38:50.256Z,55.7
2023-04-22T14:44:44.263Z,52.1
2023-04-22T14:50:36.505Z,50.1
2023-04-22T14:56:36.437Z,47.6
2023-04-22T15:02:29.071Z,45.6
2023-04-22T15:08:20.607Z,43.6
2023-04-22T15:14:12.298Z,41.9
2023-04-22T15:20:04.698Z,40.3
2023-04-22T15:25:57.939Z,38.7
2023-04-22T15:31:50.504Z,37.4
2023-04-22T15:37:43.042Z,36.1
2023-04-22T15:43:34.553Z,35
2023-04-22T15:49:28.030Z,33.9
2023-04-22T15:55:03.453Z,32.8
2023-04-22T16:01:11.756Z,31.7
2023-04-22T16:07:10.611Z,30.6
2023-04-22T16:13:02.541Z,29.5
2023-04-22T16:18:54.007Z,28.5
2023-04-22T16:24:44.883Z,27.5
2023-04-22T16:30:36.996Z,26.6
2023-04-22T16:36:12.478Z,25.6
2023-04-22T16:41:48.531Z,24.8
2023-04-22T16:47:24.704Z,23.8
2023-04-22T16:53:16.055Z,22.9
2023-04-22T16:59:06.984Z,22.1
2023-04-22T17:05:02.234Z,21.2
2023-04-22T17:10:53.990Z,20.3
2023-04-22T17:16:45.724Z,19.6
2023-04-22T17:22:37.114Z,18.8
2023-04-22T17:28:27.928Z,18.1
2023-04-22T17:34:03.651Z,17.4
2023-04-22T17:39:56.925Z,16.9
2023-04-22T17:46:01.276Z,16.4
2023-04-22T17:51:52.757Z,15.9
2023-04-22T17:57:44.121Z,15.5
2023-04-22T18:03:37.107Z,15.1
2023-04-22T18:09:28.656Z,14.7
2023-04-22T18:15:21.150Z,14.3
2023-04-22T18:21:11.453Z,14
2023-04-22T18:27:17.190Z,13.6
2023-04-22T18:32:53.906Z,13.3
2023-04-22T18:38:44.894Z,13
2023-04-22T18:44:20.475Z,12.8
2023-04-22T18:50:12.281Z,12.5
2023-04-22T18:55:47.672Z,12.3
2023-04-22T19:01:25.084Z,12.1
2023-04-22T19:07:18.542Z,11.8
2023-04-22T19:12:54.097Z,11.6
2023-04-22T19:18:47.126Z,11.4
2023-04-22T19:24:23.346Z,11.3
2023-04-22T19:29:59.932Z,11.1
2023-04-22T19:35:52.365Z,10.9
2023-04-22T19:41:30.667Z,10.8
2023-04-22T19:47:06.462Z,10.7
2023-04-22T19:52:57.964Z,10.5
2023-04-22T19:58:49.254Z,10.4
2023-04-22T20:04:43.185Z,10.3
2023-04-22T20:10:35.203Z,10.1
2023-04-22T20:16:26.506Z,10
2023-04-22T20:22:18.893Z,9.9
2023-04-22T20:28:11.020Z,9.8
2023-04-22T20:34:03.015Z,9.6
2023-04-22T20:39:54.441Z,9.4
2023-04-22T20:45:45.449Z,9.3
2023-04-22T20:51:40.533Z,9.2
2023-04-22T20:57:43.841Z,9
2023-04-22T21:03:36.130Z,8.9
2023-04-22T21:09:29.181Z,8.8
2023-04-22T21:15:22.020Z,8.6
2023-04-22T21:21:13.638Z,8.4
2023-04-22T21:27:05.604Z,8.3
2023-04-22T21:33:08.907Z,8.1
2023-04-22T21:39:02.844Z,8
2023-04-22T21:44:54.913Z,7.9
2023-04-22T21:50:30.300Z,7.8
2023-04-22T21:56:21.418Z,7.6
2023-04-22T22:01:57.784Z,7.5
2023-04-22T22:07:37.976Z,7.4
2023-04-22T22:13:40.975Z,7.2
2023-04-22T22:19:34.265Z,7
2023-04-22T22:25:25.942Z,6.9
2023-04-22T22:31:17.838Z,6.7
2023-04-22T22:37:10.195Z,6.5
2023-04-22T22:43:01.811Z,6.3
2023-04-22T22:48:55.129Z,6.1
2023-04-22T22:54:46.660Z,5.9
2023-04-22T23:00:38.157Z,5.7
2023-04-22T23:06:32.344Z,5.5
2023-04-22T23:12:08.540Z,5.3
2023-04-22T23:17:59.718Z,5.1
2023-04-22T23:23:50.960Z,4.9
2023-04-22T23:29:42.265Z,4.8
2023-04-22T23:35:33.577Z,4.6
2023-04-22T23:41:25.507Z,4.4
2023-04-22T23:47:17.594Z,4.3
2023-04-22T23:52:54.050Z,4.1
2023-04-22T23:58:45.723Z,4
